createdAt,value
2019-01-23T00:00:29.993Z,0.00
2019-01-23T00:02:29.972Z,0.00
2019-01-23T00:04:30.154Z,0.00
2019-01-23T00:05:29.939Z,0.00
2019-01-23T00:06:30.131Z,0.00
2019-01-23T00:08:29.907Z,0.00
2019-01-23T00:10:29.884Z,0.00
2019-01-23T00:12:29.863Z,0.00
2019-01-23T00:13:30.054Z,0.00
2019-01-23T00:15:29.831Z,0.00
2019-01-23T00:16:30.021Z,0.00
2019-01-23T00:17:30.011Z,0.00
2019-01-23T00:18:29.804Z,0.00
2019-01-23T00:19:29.786Z,0.00
2019-01-23T00:20:29.779Z,0.00
2019-01-23T00:22:29.755Z,0.00
2019-01-23T00:23:29.743Z,0.00
2019-01-23T00:25:29.722Z,0.00
2019-01-23T00:26:29.712Z,0.00
2019-01-23T00:27:29.906Z,0.00
2019-01-23T00:28:29.690Z,0.00
2019-01-23T00:29:29.679Z,0.00
2019-01-23T00:30:29.667Z,0.00
2019-01-23T00:32:29.646Z,0.00
2019-01-23T00:33:29.637Z,0.00
2019-01-23T00:34:29.625Z,0.00
2019-01-23T00:35:29.615Z,0.00
2019-01-23T00:36:29.604Z,0.00
2019-01-23T00:38:29.583Z,0.00
2019-01-23T00:39:29.571Z,0.00
2019-01-23T00:40:29.562Z,0.00
2019-01-23T00:41:29.550Z,0.00
2019-01-23T00:42:29.539Z,0.00
2019-01-23T00:43:29.528Z,0.00
2019-01-23T00:44:29.720Z,0.00
2019-01-23T00:45:29.506Z,0.00
2019-01-23T00:46:29.497Z,0.00
2019-01-23T00:47:29.485Z,0.00
2019-01-23T00:48:29.474Z,0.00
2019-01-23T00:49:29.463Z,0.00
2019-01-23T00:50:29.452Z,0.00
2019-01-23T00:51:29.443Z,0.00
2019-01-23T00:53:29.420Z,0.00
2019-01-23T00:54:29.409Z,0.00
2019-01-23T00:55:29.804Z,0.00
2019-01-23T00:57:29.579Z,0.00
2019-01-23T00:58:29.566Z,0.00
2019-01-23T00:59:29.356Z,0.00
2019-01-23T01:00:29.345Z,0.00
2019-01-23T01:03:29.313Z,0.00
2019-01-23T01:05:29.493Z,0.00
2019-01-23T01:06:29.280Z,0.00
2019-01-23T01:07:29.269Z,0.00
2019-01-23T01:08:29.259Z,0.00
2019-01-23T01:09:29.450Z,0.00
2019-01-23T01:10:29.236Z,0.00
2019-01-23T01:11:29.429Z,0.00
2019-01-23T01:12:29.418Z,0.00
2019-01-23T01:14:29.194Z,0.00
2019-01-23T01:18:29.150Z,0.00
2019-01-23T01:19:29.140Z,0.00
2019-01-23T01:20:29.131Z,0.00
2019-01-23T01:21:29.118Z,0.00
2019-01-23T01:22:29.107Z,0.00
2019-01-23T01:23:29.097Z,0.00
2019-01-23T01:24:29.086Z,0.00
2019-01-23T01:25:29.075Z,0.00
2019-01-23T01:26:29.266Z,0.00
2019-01-23T01:27:29.256Z,0.00
2019-01-23T01:28:29.044Z,0.00
2019-01-23T01:29:29.032Z,0.00
2019-01-23T01:30:29.223Z,0.00
2019-01-23T01:31:29.011Z,0.00
2019-01-23T01:32:29.000Z,0.00
2019-01-23T01:33:29.393Z,0.00
2019-01-23T01:34:28.980Z,0.00
2019-01-23T01:36:28.957Z,0.00
2019-01-23T01:38:28.936Z,0.00
2019-01-23T01:39:29.130Z,0.00
2019-01-23T01:40:28.915Z,0.00
2019-01-23T01:41:29.108Z,0.00
2019-01-23T01:42:28.900Z,0.00
2019-01-23T01:43:28.882Z,0.00
2019-01-23T01:44:28.874Z,0.00
2019-01-23T01:46:28.850Z,0.00
2019-01-23T01:47:28.838Z,0.00
2019-01-23T01:48:28.834Z,0.00
2019-01-23T01:49:28.822Z,0.00
2019-01-23T01:50:28.807Z,0.00
2019-01-23T01:51:29.003Z,0.00
2019-01-23T01:53:29.343Z,0.00
2019-01-23T01:54:28.763Z,0.00
2019-01-23T01:55:28.755Z,0.00
2019-01-23T01:56:28.747Z,0.00
2019-01-23T01:57:28.736Z,0.00
2019-01-23T01:58:28.924Z,0.00
2019-01-23T01:59:28.716Z,0.00
2019-01-23T02:00:28.903Z,0.00
2019-01-23T02:01:28.690Z,0.00
2019-01-23T02:02:28.680Z,0.00
2019-01-23T02:03:30.309Z,0.00
2019-01-23T02:04:28.658Z,0.00
2019-01-23T02:05:28.856Z,0.00
2019-01-23T02:06:28.635Z,0.00
2019-01-23T02:07:28.624Z,0.00
2019-01-23T02:08:28.824Z,0.00
2019-01-23T02:09:28.609Z,0.00
2019-01-23T02:10:28.819Z,0.00
2019-01-23T02:11:29.191Z,0.00
2019-01-23T02:12:28.579Z,0.00
2019-01-23T02:14:28.550Z,0.00
2019-01-23T02:15:28.545Z,0.00
2019-01-23T02:16:28.531Z,0.00
2019-01-23T02:18:28.507Z,0.00
2019-01-23T02:19:28.499Z,0.00
2019-01-23T02:20:28.484Z,0.00
2019-01-23T02:21:28.475Z,0.00
2019-01-23T02:22:28.469Z,0.00
2019-01-23T02:23:28.453Z,0.00
2019-01-23T02:25:28.436Z,0.00
2019-01-23T02:26:28.420Z,0.00
2019-01-23T02:27:28.414Z,0.00
2019-01-23T02:28:28.400Z,0.00
2019-01-23T02:30:28.578Z,0.00
2019-01-23T02:31:28.365Z,0.00
2019-01-23T02:32:29.577Z,0.00
2019-01-23T02:33:28.551Z,0.00
2019-01-23T02:34:28.534Z,0.00
2019-01-23T02:35:28.325Z,0.00
2019-01-23T02:36:28.315Z,0.00
2019-01-23T02:37:28.307Z,0.00
2019-01-23T02:38:28.297Z,0.00
2019-01-23T02:40:28.272Z,0.00
2019-01-23T02:41:28.465Z,0.00
2019-01-23T02:45:28.213Z,0.00
2019-01-23T02:46:28.210Z,0.00
2019-01-23T02:47:28.195Z,0.00
2019-01-23T02:48:28.187Z,0.00
2019-01-23T02:51:28.156Z,0.00
2019-01-23T02:54:28.120Z,0.00
2019-01-23T02:55:28.105Z,0.00
2019-01-23T02:56:28.097Z,0.00
2019-01-23T02:58:28.076Z,0.00
2019-01-23T03:00:28.053Z,0.00
2019-01-23T03:01:28.040Z,0.00
2019-01-23T03:03:28.024Z,0.00
2019-01-23T03:04:28.211Z,0.00
2019-01-23T03:05:28.204Z,0.00
2019-01-23T03:06:28.197Z,0.00
2019-01-23T03:07:27.984Z,0.00
2019-01-23T03:09:28.164Z,0.00
2019-01-23T03:10:27.947Z,0.00
2019-01-23T03:11:27.940Z,0.00
2019-01-23T03:12:27.928Z,0.00
2019-01-23T03:14:27.908Z,0.00
2019-01-23T03:15:28.094Z,0.00
2019-01-23T03:16:27.883Z,0.00
2019-01-23T03:18:28.059Z,0.00
2019-01-23T03:19:27.863Z,0.00
2019-01-23T03:20:27.837Z,0.00
2019-01-23T03:21:27.829Z,0.00
2019-01-23T03:22:28.222Z,0.00
2019-01-23T03:25:27.785Z,0.00
2019-01-23T03:26:27.979Z,0.00
2019-01-23T03:27:27.761Z,0.00
2019-01-23T03:28:27.957Z,0.00
2019-01-23T03:29:27.740Z,0.00
2019-01-23T03:30:27.735Z,0.00
2019-01-23T03:31:27.723Z,0.00
2019-01-23T03:33:27.703Z,0.00
2019-01-23T03:34:27.692Z,0.00
2019-01-23T03:36:27.669Z,0.00
2019-01-23T03:37:27.654Z,0.00
2019-01-23T03:39:27.846Z,0.00
2019-01-23T03:40:27.625Z,0.00
2019-01-23T03:41:27.611Z,0.00
2019-01-23T03:43:27.798Z,0.00
2019-01-23T03:44:27.583Z,0.00
2019-01-23T03:45:27.574Z,0.00
2019-01-23T03:46:27.560Z,0.00
2019-01-23T03:47:27.549Z,0.00
2019-01-23T03:48:27.535Z,0.00
2019-01-23T03:49:27.524Z,0.00
2019-01-23T03:50:27.513Z,0.00
2019-01-23T03:51:27.504Z,0.00
2019-01-23T03:52:27.695Z,0.00
2019-01-23T03:53:27.483Z,0.00
2019-01-23T03:54:27.468Z,0.00
2019-01-23T03:55:27.462Z,0.00
2019-01-23T03:56:27.446Z,0.00
2019-01-23T03:57:27.443Z,0.00
2019-01-23T03:58:27.427Z,0.00
2019-01-23T03:59:32.200Z,0.00
2019-01-23T04:01:27.395Z,0.00
2019-01-23T04:02:27.582Z,0.00
2019-01-23T04:03:27.372Z,0.00
2019-01-23T04:06:27.544Z,0.00
2019-01-23T04:07:27.328Z,0.00
2019-01-23T04:08:27.323Z,0.00
2019-01-23T04:09:27.309Z,0.00
2019-01-23T04:10:27.293Z,0.00
2019-01-23T04:11:27.286Z,0.00
2019-01-23T04:13:27.262Z,0.00
2019-01-23T04:14:27.455Z,0.00
2019-01-23T04:16:27.236Z,0.00
2019-01-23T04:18:27.206Z,0.00
2019-01-23T04:19:27.397Z,0.00
2019-01-23T04:20:27.395Z,0.00
2019-01-23T04:21:27.179Z,0.00
2019-01-23T04:23:27.159Z,0.00
2019-01-23T04:24:27.148Z,0.00
2019-01-23T04:25:27.138Z,0.00
2019-01-23T04:26:27.128Z,0.00
2019-01-23T04:27:27.517Z,0.00
2019-01-23T04:28:27.106Z,0.00
2019-01-23T04:29:27.098Z,0.00
2019-01-23T04:30:27.079Z,0.00
2019-01-23T04:31:27.065Z,0.00
2019-01-23T04:32:27.058Z,0.00
2019-01-23T04:33:27.046Z,0.00
2019-01-23T04:34:27.038Z,0.00
2019-01-23T04:35:27.230Z,0.00
2019-01-23T04:36:27.216Z,0.00
2019-01-23T04:37:26.998Z,0.00
2019-01-23T04:39:27.182Z,0.00
2019-01-23T04:43:26.941Z,0.00
2019-01-23T04:44:27.129Z,0.00
2019-01-23T04:47:26.891Z,0.00
2019-01-23T04:48:26.884Z,0.00
2019-01-23T04:49:26.871Z,0.00
2019-01-23T04:50:26.860Z,0.00
2019-01-23T04:51:26.849Z,0.00
2019-01-23T04:52:26.836Z,0.00
2019-01-23T04:53:26.825Z,0.00
2019-01-23T04:54:26.814Z,0.00
2019-01-23T04:56:26.997Z,0.00
2019-01-23T04:57:26.784Z,0.00
2019-01-23T04:58:26.768Z,0.00
2019-01-23T04:59:26.763Z,0.00
2019-01-23T05:01:26.736Z,0.00
2019-01-23T05:02:26.726Z,0.00
2019-01-23T05:03:26.713Z,0.00
2019-01-23T05:05:26.697Z,0.00
2019-01-23T05:06:26.886Z,0.00
2019-01-23T05:07:26.670Z,0.00
2019-01-23T05:08:26.863Z,0.00
2019-01-23T05:09:26.849Z,0.00
2019-01-23T05:11:26.625Z,0.00
2019-01-23T05:12:26.822Z,0.00
2019-01-23T05:13:26.609Z,0.00
2019-01-23T05:14:26.595Z,0.00
2019-01-23T05:15:26.584Z,0.00
2019-01-23T05:17:26.558Z,0.00
2019-01-23T05:18:26.547Z,0.00
2019-01-23T05:20:26.573Z,0.00
2019-01-23T05:21:26.516Z,0.00
2019-01-23T05:22:26.503Z,0.00
2019-01-23T05:23:26.500Z,0.00
2019-01-23T05:24:26.685Z,0.00
2019-01-23T05:25:26.471Z,0.00
2019-01-23T05:26:26.662Z,0.00
2019-01-23T05:27:26.649Z,0.00
2019-01-23T05:28:26.451Z,0.00
2019-01-23T05:29:26.832Z,0.00
2019-01-23T05:31:26.607Z,0.00
2019-01-23T05:32:26.396Z,0.00
2019-01-23T05:33:26.381Z,0.00
2019-01-23T05:34:26.367Z,0.00
2019-01-23T05:36:26.345Z,0.00
2019-01-23T05:37:26.333Z,0.00
2019-01-23T05:38:26.328Z,0.00
2019-01-23T05:40:26.307Z,0.00
2019-01-23T05:42:26.284Z,0.00
2019-01-23T05:44:27.490Z,0.00
2019-01-23T05:46:26.236Z,0.00
2019-01-23T05:47:26.222Z,0.00
2019-01-23T05:48:26.423Z,0.00
2019-01-23T05:50:26.194Z,0.00
2019-01-23T05:51:26.213Z,0.00
2019-01-23T05:52:26.169Z,0.00
2019-01-23T05:53:26.159Z,0.00
2019-01-23T05:56:26.128Z,0.00
2019-01-23T05:57:27.525Z,0.00
2019-01-23T05:58:26.107Z,0.00
2019-01-23T05:59:26.702Z,0.00
2019-01-23T06:00:26.083Z,0.00
2019-01-23T06:01:26.074Z,0.00
2019-01-23T06:02:26.055Z,0.00
2019-01-23T06:03:26.100Z,0.00
2019-01-23T06:05:26.020Z,0.00
2019-01-23T06:06:26.011Z,0.00
2019-01-23T06:07:25.998Z,0.00
2019-01-23T06:08:25.988Z,0.00
2019-01-23T06:09:26.181Z,0.00
2019-01-23T06:10:26.171Z,0.00
2019-01-23T06:13:25.936Z,0.00
2019-01-23T06:14:25.919Z,0.00
2019-01-23T06:15:25.910Z,0.00
2019-01-23T06:16:25.896Z,0.00
2019-01-23T06:19:25.870Z,0.00
2019-01-23T06:20:25.855Z,0.00
2019-01-23T06:21:25.842Z,0.00
2019-01-23T06:22:25.830Z,0.00
2019-01-23T06:23:25.825Z,0.00
2019-01-23T06:24:25.814Z,0.00
2019-01-23T06:25:25.803Z,0.00
2019-01-23T06:27:25.778Z,0.00
2019-01-23T06:28:25.761Z,0.00
2019-01-23T06:29:25.760Z,0.00
2019-01-23T06:30:25.946Z,0.00
2019-01-23T06:31:25.735Z,0.00
2019-01-23T06:32:25.721Z,0.00
2019-01-23T06:33:25.713Z,0.00
2019-01-23T06:34:25.700Z,0.00
2019-01-23T06:35:25.888Z,0.00
2019-01-23T06:36:25.678Z,0.00
2019-01-23T06:37:25.666Z,0.00
2019-01-23T06:38:25.650Z,0.00
2019-01-23T06:39:25.639Z,0.00
2019-01-23T06:42:25.607Z,0.00
2019-01-23T06:43:25.594Z,0.00
2019-01-23T06:44:25.787Z,0.00
2019-01-23T06:45:25.774Z,0.00
2019-01-23T06:46:25.559Z,0.00
2019-01-23T06:47:25.957Z,0.00
2019-01-23T06:48:26.753Z,0.00
2019-01-23T06:49:25.524Z,0.00
2019-01-23T06:52:25.694Z,0.00
2019-01-23T06:53:25.479Z,0.00
2019-01-23T06:54:25.483Z,0.00
2019-01-23T06:55:25.458Z,0.00
2019-01-23T06:57:25.439Z,0.00
2019-01-23T07:01:25.595Z,0.00
2019-01-23T07:02:25.382Z,0.00
2019-01-23T07:03:25.576Z,0.00
2019-01-23T07:04:25.361Z,0.00
2019-01-23T07:05:25.352Z,0.00
2019-01-23T07:06:25.341Z,0.00
2019-01-23T07:08:25.317Z,0.00
2019-01-23T07:09:25.525Z,0.00
2019-01-23T07:10:25.496Z,0.00
2019-01-23T07:11:25.487Z,0.00
2019-01-23T07:13:25.260Z,0.00
2019-01-23T07:14:25.259Z,0.00
2019-01-23T07:15:25.238Z,0.00
2019-01-23T07:16:58.442Z,0.00
2019-01-23T07:17:25.619Z,0.00
2019-01-23T07:18:25.211Z,0.00
2019-01-23T07:19:25.403Z,0.00
2019-01-23T07:21:25.174Z,0.00
2019-01-23T07:22:25.164Z,0.00
2019-01-23T07:23:25.152Z,0.00
2019-01-23T07:24:25.141Z,0.00
2019-01-23T07:26:25.119Z,5.63
2019-01-23T07:27:25.516Z,5.63
2019-01-23T07:28:25.097Z,5.63
2019-01-23T07:29:25.084Z,5.63
2019-01-23T07:30:25.071Z,5.63
2019-01-23T07:32:25.058Z,11.25
2019-01-23T07:33:25.049Z,11.25
2019-01-23T07:34:25.240Z,11.25
2019-01-23T07:35:25.227Z,11.25
2019-01-23T07:36:25.020Z,11.25
2019-01-23T07:37:25.001Z,11.25
2019-01-23T07:39:24.978Z,11.25
2019-01-23T07:40:25.375Z,16.88
2019-01-23T07:41:24.952Z,16.88
2019-01-23T07:42:24.946Z,16.88
2019-01-23T07:43:24.941Z,16.88
2019-01-23T07:44:25.124Z,16.88
2019-01-23T07:45:24.917Z,22.50
2019-01-23T07:46:25.101Z,22.50
2019-01-23T07:47:24.889Z,22.50
2019-01-23T07:48:24.884Z,22.50
2019-01-23T07:49:24.866Z,22.50
2019-01-23T07:50:25.057Z,22.50
2019-01-23T07:51:26.080Z,22.50
2019-01-23T07:52:24.835Z,22.50
2019-01-23T07:54:24.840Z,22.50
2019-01-23T07:55:24.809Z,22.50
2019-01-23T07:56:24.795Z,22.50
2019-01-23T07:58:25.982Z,22.50
2019-01-23T08:00:31.017Z,22.50
2019-01-23T08:02:24.925Z,22.50
2019-01-23T08:04:24.706Z,22.50
2019-01-23T08:05:24.894Z,22.50
2019-01-23T08:06:24.689Z,22.50
2019-01-23T08:07:24.670Z,28.13
2019-01-23T08:08:24.667Z,28.13
2019-01-23T08:09:25.888Z,28.13
2019-01-23T08:10:24.657Z,28.13
2019-01-23T08:11:24.636Z,28.13
2019-01-23T08:12:24.627Z,33.75
2019-01-23T08:13:24.813Z,33.75
2019-01-23T08:14:24.604Z,33.75
2019-01-23T08:15:24.594Z,33.75
2019-01-23T08:16:24.583Z,33.75
2019-01-23T08:17:24.563Z,33.75
2019-01-23T08:18:24.560Z,33.75
2019-01-23T08:19:24.547Z,39.38
2019-01-23T08:20:24.541Z,39.38
2019-01-23T08:22:24.719Z,39.38
2019-01-23T08:23:24.507Z,45.00
2019-01-23T08:24:24.500Z,45.00
2019-01-23T08:25:25.696Z,45.00
2019-01-23T08:26:24.469Z,50.63
2019-01-23T08:30:24.436Z,61.88
2019-01-23T08:31:24.423Z,61.88
2019-01-23T08:32:24.422Z,61.88
2019-01-23T08:33:24.397Z,67.50
2019-01-23T08:34:24.794Z,67.50
2019-01-23T08:35:24.579Z,67.50
2019-01-23T08:36:24.365Z,67.50
2019-01-23T08:38:24.343Z,67.50
2019-01-23T08:39:24.341Z,67.50
2019-01-23T08:40:24.335Z,67.50
2019-01-23T08:41:24.319Z,67.50
2019-01-23T08:43:24.301Z,67.50
2019-01-23T08:45:24.472Z,73.13
2019-01-23T08:46:24.270Z,73.13
2019-01-23T08:47:24.253Z,73.13
2019-01-23T08:48:24.246Z,73.13
2019-01-23T08:49:24.431Z,73.13
2019-01-23T08:50:24.223Z,73.13
2019-01-23T08:51:24.213Z,73.13
2019-01-23T08:52:24.206Z,73.13
2019-01-23T08:53:24.193Z,78.75
2019-01-23T08:54:24.180Z,73.13
2019-01-23T08:55:24.373Z,73.13
2019-01-23T08:56:24.162Z,73.13
2019-01-23T08:58:24.143Z,78.75
2019-01-23T08:59:24.126Z,78.75
2019-01-23T09:00:24.124Z,78.75
2019-01-23T09:01:24.107Z,78.75
2019-01-23T09:02:24.098Z,78.75
2019-01-23T09:03:24.088Z,78.75
2019-01-23T09:04:24.077Z,78.75
2019-01-23T09:05:24.273Z,73.13
2019-01-23T09:07:24.049Z,78.75
2019-01-23T09:08:24.445Z,78.75
2019-01-23T09:09:24.025Z,78.75
2019-01-23T09:10:24.014Z,78.75
2019-01-23T09:11:24.010Z,78.75
2019-01-23T09:12:23.995Z,78.75
2019-01-23T09:13:23.988Z,84.38
2019-01-23T09:14:24.174Z,84.38
2019-01-23T09:15:23.969Z,84.38
2019-01-23T09:17:23.946Z,78.75
2019-01-23T09:18:24.132Z,78.75
2019-01-23T09:19:23.928Z,78.75
2019-01-23T09:21:24.103Z,78.75
2019-01-23T09:22:23.897Z,78.75
2019-01-23T09:23:23.888Z,78.75
2019-01-23T09:24:23.877Z,78.75
2019-01-23T09:25:24.066Z,84.38
2019-01-23T09:28:24.043Z,90.00
2019-01-23T09:30:23.813Z,90.00
2019-01-23T09:32:23.788Z,95.63
2019-01-23T09:33:23.781Z,101.25
2019-01-23T09:34:23.775Z,106.88
2019-01-23T09:35:23.758Z,112.50
2019-01-23T09:36:23.950Z,118.13
2019-01-23T09:38:23.732Z,118.13
2019-01-23T09:39:23.725Z,123.75
2019-01-23T09:40:23.708Z,118.13
2019-01-23T09:44:23.673Z,123.75
2019-01-23T09:46:23.658Z,123.75
2019-01-23T09:47:23.643Z,112.50
2019-01-23T09:48:23.636Z,112.50
2019-01-23T09:49:24.025Z,123.75
2019-01-23T09:51:23.605Z,123.75
2019-01-23T09:52:23.589Z,123.75
2019-01-23T09:53:23.785Z,129.38
2019-01-23T09:54:23.578Z,135.00
2019-01-23T09:55:23.566Z,135.00
2019-01-23T09:56:23.558Z,135.00
2019-01-23T09:57:23.542Z,129.38
2019-01-23T09:58:23.531Z,123.75
2019-01-23T09:59:23.527Z,118.13
2019-01-23T10:00:23.513Z,112.50
2019-01-23T10:01:23.503Z,112.50
2019-01-23T10:04:23.677Z,112.50
2019-01-23T10:05:23.462Z,118.13
2019-01-23T10:06:23.460Z,118.13
2019-01-23T10:07:23.446Z,118.13
2019-01-23T10:08:23.441Z,118.13
2019-01-23T10:10:23.624Z,118.13
2019-01-23T10:12:23.401Z,129.38
2019-01-23T10:14:23.374Z,135.00
2019-01-23T10:15:23.367Z,140.63
2019-01-23T10:16:23.363Z,146.25
2019-01-23T10:17:23.345Z,151.88
2019-01-23T10:18:23.344Z,157.50
2019-01-23T10:19:23.333Z,168.75
2019-01-23T10:20:23.318Z,180.00
2019-01-23T10:21:23.314Z,180.00
2019-01-23T10:22:23.505Z,185.63
2019-01-23T10:23:23.289Z,196.88
2019-01-23T10:24:23.487Z,196.88
2019-01-23T10:25:24.479Z,191.25
2019-01-23T10:27:23.456Z,191.25
2019-01-23T10:28:23.244Z,202.50
2019-01-23T10:29:23.436Z,219.38
2019-01-23T10:30:23.231Z,225.00
2019-01-23T10:31:23.221Z,213.75
2019-01-23T10:33:23.200Z,213.75
2019-01-23T10:34:23.193Z,230.63
2019-01-23T10:35:23.185Z,225.00
2019-01-23T10:36:23.377Z,219.38
2019-01-23T10:37:23.365Z,219.38
2019-01-23T10:38:23.362Z,241.88
2019-01-23T10:39:23.147Z,253.13
2019-01-23T10:42:23.123Z,253.13
2019-01-23T10:44:23.104Z,298.13
2019-01-23T10:46:23.086Z,315.00
2019-01-23T10:47:23.287Z,331.88
2019-01-23T10:48:23.077Z,326.25
2019-01-23T10:49:23.067Z,348.75
2019-01-23T10:50:23.062Z,382.50
2019-01-23T10:51:23.047Z,371.25
2019-01-23T10:52:23.245Z,320.63
2019-01-23T10:53:23.236Z,303.75
2019-01-23T10:54:23.037Z,298.13
2019-01-23T10:56:23.013Z,292.50
2019-01-23T10:57:23.010Z,292.50
2019-01-23T10:59:23.194Z,247.50
2019-01-23T11:00:23.183Z,247.50
2019-01-23T11:01:22.978Z,253.13
2019-01-23T11:04:22.958Z,264.38
2019-01-23T11:06:22.937Z,258.75
2019-01-23T11:07:24.160Z,253.13
2019-01-23T11:08:22.929Z,247.50
2019-01-23T11:10:23.109Z,225.00
2019-01-23T11:12:22.897Z,247.50
2019-01-23T11:17:22.862Z,298.13
2019-01-23T11:18:22.847Z,309.38
2019-01-23T11:19:23.042Z,315.00
2019-01-23T11:20:22.838Z,298.13
2019-01-23T11:21:22.837Z,298.13
2019-01-23T11:22:23.226Z,303.75
2019-01-23T11:23:24.226Z,331.88
2019-01-23T11:24:23.007Z,354.38
2019-01-23T11:25:23.006Z,348.75
2019-01-23T11:27:22.791Z,371.25
2019-01-23T11:28:22.780Z,371.25
2019-01-23T11:29:22.976Z,388.13
2019-01-23T11:31:22.761Z,360.00
2019-01-23T11:32:22.958Z,410.63
2019-01-23T11:33:22.745Z,393.75
2019-01-23T11:34:22.746Z,337.50
2019-01-23T11:37:22.728Z,298.13
2019-01-23T11:39:22.718Z,298.13
2019-01-23T11:40:22.704Z,281.25
2019-01-23T11:41:22.699Z,258.75
2019-01-23T11:44:22.686Z,202.50
2019-01-23T11:45:22.676Z,191.25
2019-01-23T11:46:22.875Z,208.13
2019-01-23T11:47:22.666Z,219.38
2019-01-23T11:48:22.658Z,213.75
2019-01-23T11:49:22.652Z,208.13
2019-01-23T11:50:23.212Z,208.13
2019-01-23T11:51:22.837Z,236.25
2019-01-23T11:53:22.626Z,241.88
2019-01-23T11:54:22.812Z,241.88
2019-01-23T11:58:22.592Z,303.75
2019-01-23T11:59:23.994Z,298.13
2019-01-23T12:00:22.577Z,309.38
2019-01-23T12:01:27.555Z,286.88
2019-01-23T12:02:22.565Z,303.75
2019-01-23T12:03:22.550Z,326.25
2019-01-23T12:05:22.541Z,331.88
2019-01-23T12:06:22.531Z,320.63
2019-01-23T12:08:22.519Z,275.63
2019-01-23T12:10:22.503Z,275.63
2019-01-23T12:11:22.503Z,281.25
2019-01-23T12:12:22.693Z,258.75
2019-01-23T12:15:22.471Z,286.88
2019-01-23T12:16:22.462Z,270.00
2019-01-23T12:18:22.661Z,286.88
2019-01-23T12:19:22.446Z,320.63
2019-01-23T12:20:22.444Z,326.25
2019-01-23T12:21:22.432Z,331.88
2019-01-23T12:22:24.433Z,348.75
2019-01-23T12:26:22.401Z,343.13
2019-01-23T12:27:22.603Z,348.75
2019-01-23T12:28:22.395Z,320.63
2019-01-23T12:29:55.601Z,303.75
2019-01-23T12:30:22.388Z,281.25
2019-01-23T12:33:22.366Z,275.63
2019-01-23T12:35:22.556Z,320.63
2019-01-23T12:36:22.550Z,326.25
2019-01-23T12:40:22.332Z,286.88
2019-01-23T12:41:22.323Z,292.50
2019-01-23T12:42:22.315Z,320.63
2019-01-23T12:43:22.513Z,286.88
2019-01-23T12:44:22.307Z,303.75
2019-01-23T12:46:22.291Z,281.25
2019-01-23T12:47:22.294Z,309.38
2019-01-23T12:48:22.283Z,320.63
2019-01-23T12:49:22.281Z,320.63
2019-01-23T12:50:22.271Z,309.38
2019-01-23T12:52:22.460Z,326.25
2019-01-23T12:53:22.456Z,309.38
2019-01-23T12:54:23.453Z,320.63
2019-01-23T12:55:22.248Z,309.38
2019-01-23T12:56:22.245Z,315.00
2019-01-23T12:57:22.237Z,326.25
2019-01-23T12:58:22.437Z,309.38
2019-01-23T12:59:22.230Z,309.38
2019-01-23T13:00:22.422Z,320.63
2019-01-23T13:01:22.218Z,315.00
2019-01-23T13:03:22.408Z,320.63
2019-01-23T13:04:22.203Z,315.00
2019-01-23T13:05:55.605Z,303.75
2019-01-23T13:07:22.186Z,298.13
2019-01-23T13:08:22.181Z,298.13
2019-01-23T13:09:22.168Z,286.88
2019-01-23T13:10:55.375Z,281.25
2019-01-23T13:11:22.358Z,275.63
2019-01-23T13:12:22.156Z,264.38
2019-01-23T13:13:22.346Z,247.50
2019-01-23T13:14:22.342Z,225.00
2019-01-23T13:15:22.140Z,213.75
2019-01-23T13:16:22.338Z,196.88
2019-01-23T13:17:22.323Z,191.25
2019-01-23T13:18:22.117Z,191.25
2019-01-23T13:19:22.316Z,196.88
2019-01-23T13:20:22.104Z,202.50
2019-01-23T13:21:22.094Z,208.13
2019-01-23T13:23:22.082Z,213.75
2019-01-23T13:24:22.073Z,213.75
2019-01-23T13:25:22.072Z,219.38
2019-01-23T13:26:22.064Z,213.75
2019-01-23T13:27:22.052Z,219.38
2019-01-23T13:28:22.051Z,219.38
2019-01-23T13:29:23.183Z,219.38
2019-01-23T13:30:22.036Z,219.38
2019-01-23T13:31:22.225Z,213.75
2019-01-23T13:32:22.016Z,213.75
2019-01-23T13:34:22.206Z,219.38
2019-01-23T13:35:22.002Z,213.75
2019-01-23T13:36:22.193Z,219.38
2019-01-23T13:37:21.985Z,225.00
2019-01-23T13:38:21.976Z,236.25
2019-01-23T13:39:21.965Z,247.50
2019-01-23T13:40:21.961Z,247.50
2019-01-23T13:41:21.952Z,258.75
2019-01-23T13:42:22.148Z,281.25
2019-01-23T13:43:21.941Z,275.63
2019-01-23T13:45:21.924Z,241.88
2019-01-23T13:46:21.918Z,236.25
2019-01-23T13:48:21.907Z,236.25
2019-01-23T13:49:21.898Z,241.88
2019-01-23T13:50:21.892Z,258.75
2019-01-23T13:51:21.881Z,281.25
2019-01-23T13:52:21.877Z,298.13
2019-01-23T13:53:21.864Z,303.75
2019-01-23T13:54:21.860Z,281.25
2019-01-23T13:55:21.857Z,264.38
2019-01-23T13:56:21.846Z,281.25
2019-01-23T13:57:55.250Z,281.25
2019-01-23T13:58:21.837Z,275.63
2019-01-23T13:59:21.827Z,264.38
2019-01-23T14:00:21.817Z,253.13
2019-01-23T14:01:21.812Z,247.50
2019-01-23T14:03:21.805Z,247.50
2019-01-23T14:05:21.789Z,247.50
2019-01-23T14:07:21.775Z,253.13
2019-01-23T14:09:21.961Z,253.13
2019-01-23T14:10:21.955Z,258.75
2019-01-23T14:11:21.750Z,264.38
2019-01-23T14:12:21.753Z,253.13
2019-01-23T14:14:21.737Z,264.38
2019-01-23T14:15:21.932Z,225.00
2019-01-23T14:16:21.722Z,225.00
2019-01-23T14:17:21.717Z,202.50
2019-01-23T14:18:21.704Z,180.00
2019-01-23T14:19:21.906Z,174.38
2019-01-23T14:20:21.694Z,168.75
2019-01-23T14:21:21.689Z,157.50
2019-01-23T14:22:21.685Z,146.25
2019-01-23T14:23:21.680Z,146.25
2019-01-23T14:24:21.671Z,146.25
2019-01-23T14:25:21.660Z,135.00
2019-01-23T14:26:21.855Z,135.00
2019-01-23T14:27:21.644Z,129.38
2019-01-23T14:28:21.654Z,129.38
2019-01-23T14:29:21.629Z,118.13
2019-01-23T14:30:21.624Z,112.50
2019-01-23T14:31:21.623Z,112.50
2019-01-23T14:36:21.789Z,101.25
2019-01-23T14:38:21.568Z,101.25
2019-01-23T14:39:21.553Z,95.63
2019-01-23T14:40:21.552Z,95.63
2019-01-23T14:41:21.542Z,90.00
2019-01-23T14:42:21.530Z,90.00
2019-01-23T14:44:21.519Z,84.38
2019-01-23T14:45:21.504Z,78.75
2019-01-23T14:47:21.689Z,73.13
2019-01-23T14:48:21.486Z,73.13
2019-01-23T14:49:21.478Z,78.75
2019-01-23T14:50:21.665Z,78.75
2019-01-23T14:51:21.462Z,78.75
2019-01-23T14:52:21.450Z,78.75
2019-01-23T14:53:21.644Z,78.75
2019-01-23T14:55:21.425Z,73.13
2019-01-23T14:56:21.618Z,73.13
2019-01-23T14:57:54.816Z,73.13
2019-01-23T14:58:21.645Z,73.13
2019-01-23T14:59:21.388Z,73.13
2019-01-23T15:01:21.570Z,67.50
2019-01-23T15:02:21.362Z,61.88
2019-01-23T15:04:21.342Z,56.25
2019-01-23T15:05:21.333Z,56.25
2019-01-23T15:06:21.326Z,56.25
2019-01-23T15:07:21.312Z,50.63
2019-01-23T15:09:21.502Z,50.63
2019-01-23T15:10:21.695Z,50.63
2019-01-23T15:11:21.272Z,50.63
2019-01-23T15:12:21.268Z,50.63
2019-01-23T15:13:21.455Z,50.63
2019-01-23T15:14:21.252Z,50.63
2019-01-23T15:16:21.430Z,50.63
2019-01-23T15:18:21.212Z,50.63
2019-01-23T15:20:21.189Z,45.00
2019-01-23T15:21:21.380Z,45.00
2019-01-23T15:22:21.371Z,45.00
2019-01-23T15:23:21.368Z,45.00
2019-01-23T15:24:21.152Z,45.00
2019-01-23T15:25:21.139Z,45.00
2019-01-23T15:26:21.136Z,39.38
2019-01-23T15:27:21.328Z,39.38
2019-01-23T15:28:21.323Z,39.38
2019-01-23T15:31:21.088Z,39.38
2019-01-23T15:32:21.483Z,39.38
2019-01-23T15:33:21.097Z,33.75
2019-01-23T15:34:21.057Z,33.75
2019-01-23T15:35:21.045Z,33.75
2019-01-23T15:36:21.032Z,33.75
2019-01-23T15:37:21.027Z,33.75
2019-01-23T15:38:21.018Z,28.13
2019-01-23T15:39:21.211Z,28.13
2019-01-23T15:40:20.998Z,28.13
2019-01-23T15:41:20.986Z,28.13
2019-01-23T15:42:20.974Z,22.50
2019-01-23T15:43:20.962Z,22.50
2019-01-23T15:44:20.952Z,16.88
2019-01-23T15:46:20.935Z,16.88
2019-01-23T15:47:20.924Z,16.88
2019-01-23T15:50:20.893Z,11.25
2019-01-23T15:51:21.089Z,11.25
2019-01-23T15:52:20.883Z,11.25
2019-01-23T15:53:20.867Z,11.25
2019-01-23T15:54:21.051Z,11.25
2019-01-23T15:55:20.845Z,11.25
2019-01-23T15:56:20.833Z,5.63
2019-01-23T15:57:20.821Z,5.63
2019-01-23T15:58:22.240Z,5.63
2019-01-23T15:59:21.003Z,5.63
2019-01-23T16:00:20.795Z,5.63
2019-01-23T16:01:20.779Z,5.63
2019-01-23T16:02:24.426Z,5.63
2019-01-23T16:03:20.960Z,5.63
2019-01-23T16:04:20.951Z,5.63
2019-01-23T16:05:20.738Z,5.63
2019-01-23T16:06:20.731Z,0.00
2019-01-23T16:07:20.716Z,0.00
2019-01-23T16:10:20.888Z,0.00
2019-01-23T16:11:20.681Z,0.00
2019-01-23T16:12:20.663Z,0.00
2019-01-23T16:13:20.651Z,0.00
2019-01-23T16:16:20.624Z,0.00
2019-01-23T16:17:20.609Z,0.00
2019-01-23T16:18:20.604Z,0.00
2019-01-23T16:19:20.595Z,0.00
2019-01-23T16:20:21.794Z,0.00
2019-01-23T16:21:20.571Z,0.00
2019-01-23T16:22:20.662Z,0.00